sensor_id;sensor_type;location;lat;lon;timestamp;temperature;humidity
25332;DHT22;13284;52.748;13.452;2023-08-17T00:01:23;19.40;99.90
25332;DHT22;13284;52.748;13.452;2023-08-17T00:03:48;19.30;99.90
25332;DHT22;13284;52.748;13.452;2023-08-17T00:06:14;19.30;99.90
25332;DHT22;13284;52.748;13.452;2023-08-17T00:08:42;19.30;99.90
25332;DHT22;13284;52.748;13.452;2023-08-17T00:11:08;19.30;99.90
25332;DHT22;13284;52.748;13.452;2023-08-17T00:13:34;19.30;99.90
25332;DHT22;13284;52.748;13.452;2023-08-17T00:16:00;19.30;99.90
25332;DHT22;13284;52.748;13.452;2023-08-17T00:18:26;19.20;99.90
25332;DHT22;13284;52.748;13.452;2023-08-17T00:20:51;19.20;99.90
25332;DHT22;13284;52.748;13.452;2023-08-17T00:23:17;19.20;99.90
25332;DHT22;13284;52.748;13.452;2023-08-17T00:25:43;19.20;99.90
25332;DHT22;13284;52.748;13.452;2023-08-17T00:28:08;19.10;99.90
25332;DHT22;13284;52.748;13.452;2023-08-17T00:30:34;19.10;99.90
25332;DHT22;13284;52.748;13.452;2023-08-17T00:33:02;19.00;99.90
25332;DHT22;13284;52.748;13.452;2023-08-17T00:35:27;19.00;99.90
25332;DHT22;13284;52.748;13.452;2023-08-17T00:37:53;19.00;99.90
25332;DHT22;13284;52.748;13.452;2023-08-17T00:40:19;19.00;99.90
25332;DHT22;13284;52.748;13.452;2023-08-17T00:42:44;18.90;99.90
25332;DHT22;13284;52.748;13.452;2023-08-17T00:45:10;18.90;99.90
25332;DHT22;13284;52.748;13.452;2023-08-17T00:47:39;18.90;99.90
25332;DHT22;13284;52.748;13.452;2023-08-17T00:50:08;18.80;99.90
25332;DHT22;13284;52.748;13.452;2023-08-17T00:52:35;18.80;99.90
25332;DHT22;13284;52.748;13.452;2023-08-17T00:55:05;18.80;99.90
25332;DHT22;13284;52.748;13.452;2023-08-17T00:57:31;18.80;99.90
25332;DHT22;13284;52.748;13.452;2023-08-17T00:59:58;18.70;99.90
25332;DHT22;13284;52.748;13.452;2023-08-17T01:02:24;18.70;99.90
25332;DHT22;13284;52.748;13.452;2023-08-17T01:04:50;18.70;99.90
25332;DHT22;13284;52.748;13.452;2023-08-17T01:07:15;18.70;99.90
25332;DHT22;13284;52.748;13.452;2023-08-17T01:09:41;18.70;99.90
25332;DHT22;13284;52.748;13.452;2023-08-17T01:15:36;18.60;99.90
25332;DHT22;13284;52.748;13.452;2023-08-17T01:20:40;18.60;99.90
25332;DHT22;13284;52.748;13.452;2023-08-17T01:23:06;18.50;99.90
25332;DHT22;13284;52.748;13.452;2023-08-17T01:25:32;18.60;99.90
25332;DHT22;13284;52.748;13.452;2023-08-17T01:28:02;18.50;99.90
25332;DHT22;13284;52.748;13.452;2023-08-17T01:30:28;18.50;99.90
25332;DHT22;13284;52.748;13.452;2023-08-17T01:33:07;18.40;99.90
25332;DHT22;13284;52.748;13.452;2023-08-17T01:35:40;18.50;99.90
25332;DHT22;13284;52.748;13.452;2023-08-17T01:38:12;18.50;99.90
25332;DHT22;13284;52.748;13.452;2023-08-17T01:40:39;18.50;99.90
25332;DHT22;13284;52.748;13.452;2023-08-17T01:43:09;18.40;99.90
25332;DHT22;13284;52.748;13.452;2023-08-17T01:45:35;18.40;99.90
25332;DHT22;13284;52.748;13.452;2023-08-17T01:48:00;18.30;99.90
25332;DHT22;13284;52.748;13.452;2023-08-17T01:50:26;18.30;99.90
25332;DHT22;13284;52.748;13.452;2023-08-17T01:52:51;18.20;99.90
25332;DHT22;13284;52.748;13.452;2023-08-17T01:55:21;18.20;99.90
25332;DHT22;13284;52.748;13.452;2023-08-17T01:57:46;18.30;99.90
25332;DHT22;13284;52.748;13.452;2023-08-17T02:00:12;18.20;99.90
25332;DHT22;13284;52.748;13.452;2023-08-17T02:02:38;18.10;99.90
25332;DHT22;13284;52.748;13.452;2023-08-17T02:05:04;18.20;99.90
25332;DHT22;13284;52.748;13.452;2023-08-17T02:07:29;18.20;99.90
25332;DHT22;13284;52.748;13.452;2023-08-17T02:09:55;18.20;99.90
25332;DHT22;13284;52.748;13.452;2023-08-17T02:12:21;18.10;99.90
25332;DHT22;13284;52.748;13.452;2023-08-17T02:14:46;18.00;99.90
25332;DHT22;13284;52.748;13.452;2023-08-17T02:17:12;18.00;99.90
25332;DHT22;13284;52.748;13.452;2023-08-17T02:19:37;18.00;99.90
25332;DHT22;13284;52.748;13.452;2023-08-17T02:22:03;18.00;99.90
25332;DHT22;13284;52.748;13.452;2023-08-17T02:24:31;18.00;99.90
25332;DHT22;13284;52.748;13.452;2023-08-17T02:26:57;18.00;99.90
25332;DHT22;13284;52.748;13.452;2023-08-17T02:29:22;17.90;99.90
25332;DHT22;13284;52.748;13.452;2023-08-17T02:31:48;17.90;99.90
25332;DHT22;13284;52.748;13.452;2023-08-17T02:34:13;17.90;99.90
25332;DHT22;13284;52.748;13.452;2023-08-17T02:36:39;17.90;99.90
25332;DHT22;13284;52.748;13.452;2023-08-17T02:39:04;17.80;99.90
25332;DHT22;13284;52.748;13.452;2023-08-17T02:41:30;17.90;99.90
25332;DHT22;13284;52.748;13.452;2023-08-17T02:43:57;17.70;99.90
25332;DHT22;13284;52.748;13.452;2023-08-17T02:46:23;17.80;99.90
25332;DHT22;13284;52.748;13.452;2023-08-17T02:48:48;17.70;99.90
25332;DHT22;13284;52.748;13.452;2023-08-17T02:51:15;17.70;99.90
25332;DHT22;13284;52.748;13.452;2023-08-17T02:53:40;17.70;99.90
25332;DHT22;13284;52.748;13.452;2023-08-17T02:56:06;17.60;99.90
25332;DHT22;13284;52.748;13.452;2023-08-17T02:58:31;17.70;99.90
25332;DHT22;13284;52.748;13.452;2023-08-17T03:00:57;17.70;99.90
25332;DHT22;13284;52.748;13.452;2023-08-17T03:03:22;17.60;99.90
25332;DHT22;13284;52.748;13.452;2023-08-17T03:05:48;17.60;99.90
25332;DHT22;13284;52.748;13.452;2023-08-17T03:08:13;17.60;99.90
25332;DHT22;13284;52.748;13.452;2023-08-17T03:10:39;17.60;99.90
25332;DHT22;13284;52.748;13.452;2023-08-17T03:13:04;17.60;99.90
25332;DHT22;13284;52.748;13.452;2023-08-17T03:15:30;17.50;99.90
25332;DHT22;13284;52.748;13.452;2023-08-17T03:17:55;17.60;99.90
25332;DHT22;13284;52.748;13.452;2023-08-17T03:20:21;17.50;99.90
25332;DHT22;13284;52.748;13.452;2023-08-17T03:22:47;17.50;99.90
25332;DHT22;13284;52.748;13.452;2023-08-17T03:25:12;17.50;99.90
25332;DHT22;13284;52.748;13.452;2023-08-17T03:27:37;17.50;99.90
25332;DHT22;13284;52.748;13.452;2023-08-17T03:30:09;17.50;99.90
25332;DHT22;13284;52.748;13.452;2023-08-17T03:32:35;17.50;99.90
25332;DHT22;13284;52.748;13.452;2023-08-17T03:35:01;17.50;99.90
25332;DHT22;13284;52.748;13.452;2023-08-17T03:37:26;17.50;99.90
25332;DHT22;13284;52.748;13.452;2023-08-17T03:39:52;17.50;99.90
25332;DHT22;13284;52.748;13.452;2023-08-17T03:42:17;17.50;99.90
25332;DHT22;13284;52.748;13.452;2023-08-17T03:44:43;17.50;99.90
25332;DHT22;13284;52.748;13.452;2023-08-17T03:47:08;17.50;99.90
25332;DHT22;13284;52.748;13.452;2023-08-17T03:49:34;17.50;99.90
25332;DHT22;13284;52.748;13.452;2023-08-17T03:51:59;17.50;99.90
25332;DHT22;13284;52.748;13.452;2023-08-17T03:54:25;17.50;99.90
25332;DHT22;13284;52.748;13.452;2023-08-17T03:56:50;17.50;99.90
25332;DHT22;13284;52.748;13.452;2023-08-17T03:59:16;17.50;99.90
25332;DHT22;13284;52.748;13.452;2023-08-17T04:01:41;17.50;99.90
25332;DHT22;13284;52.748;13.452;2023-08-17T04:04:07;17.60;99.90
25332;DHT22;13284;52.748;13.452;2023-08-17T04:06:32;17.50;99.90
25332;DHT22;13284;52.748;13.452;2023-08-17T04:08:58;17.60;99.90
25332;DHT22;13284;52.748;13.452;2023-08-17T04:11:23;17.60;99.90
25332;DHT22;13284;52.748;13.452;2023-08-17T04:13:49;17.60;99.90
25332;DHT22;13284;52.748;13.452;2023-08-17T04:16:14;17.70;99.90
25332;DHT22;13284;52.748;13.452;2023-08-17T04:18:40;17.60;99.90
25332;DHT22;13284;52.748;13.452;2023-08-17T04:21:05;17.60;99.90
25332;DHT22;13284;52.748;13.452;2023-08-17T04:23:31;17.60;99.90
25332;DHT22;13284;52.748;13.452;2023-08-17T04:25:56;17.60;99.90
25332;DHT22;13284;52.748;13.452;2023-08-17T04:28:21;17.60;99.90
25332;DHT22;13284;52.748;13.452;2023-08-17T04:30:47;17.60;99.90
25332;DHT22;13284;52.748;13.452;2023-08-17T04:33:12;17.70;99.90
25332;DHT22;13284;52.748;13.452;2023-08-17T04:35:38;17.60;99.90
25332;DHT22;13284;52.748;13.452;2023-08-17T04:38:04;17.60;99.90
25332;DHT22;13284;52.748;13.452;2023-08-17T04:40:30;17.70;99.90
25332;DHT22;13284;52.748;13.452;2023-08-17T04:42:55;17.70;99.90
25332;DHT22;13284;52.748;13.452;2023-08-17T04:45:21;17.80;99.90
25332;DHT22;13284;52.748;13.452;2023-08-17T04:47:46;17.80;99.90
25332;DHT22;13284;52.748;13.452;2023-08-17T04:50:12;17.80;99.90
25332;DHT22;13284;52.748;13.452;2023-08-17T04:52:44;17.90;99.90
25332;DHT22;13284;52.748;13.452;2023-08-17T04:55:10;18.00;99.90
25332;DHT22;13284;52.748;13.452;2023-08-17T04:57:35;18.00;99.90
25332;DHT22;13284;52.748;13.452;2023-08-17T05:00:01;18.10;99.90
25332;DHT22;13284;52.748;13.452;2023-08-17T05:02:26;18.10;99.90
25332;DHT22;13284;52.748;13.452;2023-08-17T05:04:52;18.10;99.90
25332;DHT22;13284;52.748;13.452;2023-08-17T05:07:17;18.20;99.90
25332;DHT22;13284;52.748;13.452;2023-08-17T05:09:43;18.20;99.90
25332;DHT22;13284;52.748;13.452;2023-08-17T05:12:09;18.30;99.90
25332;DHT22;13284;52.748;13.452;2023-08-17T05:14:34;18.30;99.90
25332;DHT22;13284;52.748;13.452;2023-08-17T05:16:59;18.40;99.90
25332;DHT22;13284;52.748;13.452;2023-08-17T05:19:25;18.40;99.90
25332;DHT22;13284;52.748;13.452;2023-08-17T05:21:51;18.50;99.90
25332;DHT22;13284;52.748;13.452;2023-08-17T05:24:16;18.40;99.90
25332;DHT22;13284;52.748;13.452;2023-08-17T05:26:43;18.40;99.90
25332;DHT22;13284;52.748;13.452;2023-08-17T05:29:08;18.40;99.90
25332;DHT22;13284;52.748;13.452;2023-08-17T05:31:34;18.40;99.90
25332;DHT22;13284;52.748;13.452;2023-08-17T05:34:02;18.40;99.90
25332;DHT22;13284;52.748;13.452;2023-08-17T05:36:28;18.40;99.90
25332;DHT22;13284;52.748;13.452;2023-08-17T05:38:54;18.40;99.90
25332;DHT22;13284;52.748;13.452;2023-08-17T05:41:19;18.40;99.90
25332;DHT22;13284;52.748;13.452;2023-08-17T05:43:45;18.50;99.90
25332;DHT22;13284;52.748;13.452;2023-08-17T05:46:10;18.40;99.90
25332;DHT22;13284;52.748;13.452;2023-08-17T05:48:36;18.50;99.90
25332;DHT22;13284;52.748;13.452;2023-08-17T05:51:01;18.60;99.90
25332;DHT22;13284;52.748;13.452;2023-08-17T05:53:27;18.60;99.90
25332;DHT22;13284;52.748;13.452;2023-08-17T05:55:52;18.70;99.90
25332;DHT22;13284;52.748;13.452;2023-08-17T05:58:18;18.70;99.90
25332;DHT22;13284;52.748;13.452;2023-08-17T06:00:44;18.70;99.90
25332;DHT22;13284;52.748;13.452;2023-08-17T06:03:09;18.80;99.90
25332;DHT22;13284;52.748;13.452;2023-08-17T06:05:35;18.90;99.90
25332;DHT22;13284;52.748;13.452;2023-08-17T06:08:01;19.00;99.90
25332;DHT22;13284;52.748;13.452;2023-08-17T06:10:26;19.00;99.90
25332;DHT22;13284;52.748;13.452;2023-08-17T06:12:53;19.00;99.90
25332;DHT22;13284;52.748;13.452;2023-08-17T06:15:19;19.20;99.90
25332;DHT22;13284;52.748;13.452;2023-08-17T06:17:44;19.40;99.90
25332;DHT22;13284;52.748;13.452;2023-08-17T06:20:11;19.40;99.90
25332;DHT22;13284;52.748;13.452;2023-08-17T06:22:37;19.40;99.90
25332;DHT22;13284;52.748;13.452;2023-08-17T06:25:03;19.60;99.90
25332;DHT22;13284;52.748;13.452;2023-08-17T06:27:30;19.60;99.90
25332;DHT22;13284;52.748;13.452;2023-08-17T06:29:56;19.70;99.90
25332;DHT22;13284;52.748;13.452;2023-08-17T06:32:21;19.80;99.90
25332;DHT22;13284;52.748;13.452;2023-08-17T06:34:47;19.80;99.90
25332;DHT22;13284;52.748;13.452;2023-08-17T06:37:12;19.70;99.90
25332;DHT22;13284;52.748;13.452;2023-08-17T06:39:37;19.70;99.90
25332;DHT22;13284;52.748;13.452;2023-08-17T06:42:03;19.80;99.90
25332;DHT22;13284;52.748;13.452;2023-08-17T06:44:29;19.80;99.90
25332;DHT22;13284;52.748;13.452;2023-08-17T06:46:56;19.90;99.90
25332;DHT22;13284;52.748;13.452;2023-08-17T06:49:22;20.10;99.90
25332;DHT22;13284;52.748;13.452;2023-08-17T06:51:47;20.20;99.90
25332;DHT22;13284;52.748;13.452;2023-08-17T06:54:13;20.40;99.90
25332;DHT22;13284;52.748;13.452;2023-08-17T06:56:39;20.60;99.90
25332;DHT22;13284;52.748;13.452;2023-08-17T06:59:04;20.60;99.90
25332;DHT22;13284;52.748;13.452;2023-08-17T07:01:29;20.60;99.90
25332;DHT22;13284;52.748;13.452;2023-08-17T07:03:55;20.60;99.90
25332;DHT22;13284;52.748;13.452;2023-08-17T07:06:22;20.70;99.90
25332;DHT22;13284;52.748;13.452;2023-08-17T07:08:48;20.60;99.90
25332;DHT22;13284;52.748;13.452;2023-08-17T07:11:13;20.70;99.90
25332;DHT22;13284;52.748;13.452;2023-08-17T07:13:39;20.80;99.90
25332;DHT22;13284;52.748;13.452;2023-08-17T07:16:04;20.90;99.90
25332;DHT22;13284;52.748;13.452;2023-08-17T07:18:30;20.90;99.90
25332;DHT22;13284;52.748;13.452;2023-08-17T07:20:55;21.30;99.90
25332;DHT22;13284;52.748;13.452;2023-08-17T07:23:21;21.40;99.90
25332;DHT22;13284;52.748;13.452;2023-08-17T07:25:46;21.40;99.90
25332;DHT22;13284;52.748;13.452;2023-08-17T07:28:12;21.60;99.90
25332;DHT22;13284;52.748;13.452;2023-08-17T07:30:37;21.60;99.90
25332;DHT22;13284;52.748;13.452;2023-08-17T07:33:03;21.80;99.90
25332;DHT22;13284;52.748;13.452;2023-08-17T07:35:28;22.10;99.90
25332;DHT22;13284;52.748;13.452;2023-08-17T07:37:54;22.30;99.90
25332;DHT22;13284;52.748;13.452;2023-08-17T07:40:19;22.20;99.90
25332;DHT22;13284;52.748;13.452;2023-08-17T07:42:45;22.20;99.90
25332;DHT22;13284;52.748;13.452;2023-08-17T07:45:12;22.30;99.90
25332;DHT22;13284;52.748;13.452;2023-08-17T07:47:37;22.30;99.90
25332;DHT22;13284;52.748;13.452;2023-08-17T07:50:04;22.10;99.90
25332;DHT22;13284;52.748;13.452;2023-08-17T07:52:30;22.10;99.90
25332;DHT22;13284;52.748;13.452;2023-08-17T07:54:56;22.10;99.90
25332;DHT22;13284;52.748;13.452;2023-08-17T07:57:21;22.30;99.90
25332;DHT22;13284;52.748;13.452;2023-08-17T07:59:47;22.50;99.90
25332;DHT22;13284;52.748;13.452;2023-08-17T08:02:13;22.90;99.90
25332;DHT22;13284;52.748;13.452;2023-08-17T08:04:38;23.00;99.90
25332;DHT22;13284;52.748;13.452;2023-08-17T08:07:04;23.00;99.90
25332;DHT22;13284;52.748;13.452;2023-08-17T08:09:30;23.10;99.90
25332;DHT22;13284;52.748;13.452;2023-08-17T08:11:55;23.30;99.90
25332;DHT22;13284;52.748;13.452;2023-08-17T08:14:21;23.60;99.90
25332;DHT22;13284;52.748;13.452;2023-08-17T08:16:46;23.60;99.90
25332;DHT22;13284;52.748;13.452;2023-08-17T08:19:12;23.60;99.90
25332;DHT22;13284;52.748;13.452;2023-08-17T08:21:38;23.40;99.90
25332;DHT22;13284;52.748;13.452;2023-08-17T08:24:04;23.40;99.90
25332;DHT22;13284;52.748;13.452;2023-08-17T08:26:29;23.50;99.90
25332;DHT22;13284;52.748;13.452;2023-08-17T08:28:58;23.60;99.90
25332;DHT22;13284;52.748;13.452;2023-08-17T08:31:23;23.80;99.90
25332;DHT22;13284;52.748;13.452;2023-08-17T08:33:49;24.10;99.90
25332;DHT22;13284;52.748;13.452;2023-08-17T08:36:15;24.30;99.90
25332;DHT22;13284;52.748;13.452;2023-08-17T08:38:43;24.70;99.90
25332;DHT22;13284;52.748;13.452;2023-08-17T08:41:10;25.10;99.90
25332;DHT22;13284;52.748;13.452;2023-08-17T08:43:36;25.80;99.90
25332;DHT22;13284;52.748;13.452;2023-08-17T08:46:04;25.60;99.90
25332;DHT22;13284;52.748;13.452;2023-08-17T08:48:31;25.10;99.90
25332;DHT22;13284;52.748;13.452;2023-08-17T08:51:00;25.00;99.90
25332;DHT22;13284;52.748;13.452;2023-08-17T08:53:37;25.00;99.90
25332;DHT22;13284;52.748;13.452;2023-08-17T08:56:03;25.00;99.90
25332;DHT22;13284;52.748;13.452;2023-08-17T08:58:29;24.60;99.90
25332;DHT22;13284;52.748;13.452;2023-08-17T09:00:58;24.80;99.90
25332;DHT22;13284;52.748;13.452;2023-08-17T09:03:26;25.10;99.90
25332;DHT22;13284;52.748;13.452;2023-08-17T09:05:52;25.20;99.90
25332;DHT22;13284;52.748;13.452;2023-08-17T09:08:21;25.10;99.90
25332;DHT22;13284;52.748;13.452;2023-08-17T09:10:48;25.30;99.90
25332;DHT22;13284;52.748;13.452;2023-08-17T09:13:14;25.40;99.90
25332;DHT22;13284;52.748;13.452;2023-08-17T09:15:39;25.40;99.90
25332;DHT22;13284;52.748;13.452;2023-08-17T09:18:05;25.30;99.90
25332;DHT22;13284;52.748;13.452;2023-08-17T09:20:44;24.90;99.90
25332;DHT22;13284;52.748;13.452;2023-08-17T09:23:14;24.80;99.90
25332;DHT22;13284;52.748;13.452;2023-08-17T09:25:44;24.90;99.90
25332;DHT22;13284;52.748;13.452;2023-08-17T09:28:11;24.70;99.90
25332;DHT22;13284;52.748;13.452;2023-08-17T09:31:00;24.80;99.90
25332;DHT22;13284;52.748;13.452;2023-08-17T09:33:31;24.90;99.90
25332;DHT22;13284;52.748;13.452;2023-08-17T09:35:58;24.90;99.90
25332;DHT22;13284;52.748;13.452;2023-08-17T09:38:24;24.70;99.90
25332;DHT22;13284;52.748;13.452;2023-08-17T09:40:50;24.50;99.90
25332;DHT22;13284;52.748;13.452;2023-08-17T09:43:16;24.30;99.90
25332;DHT22;13284;52.748;13.452;2023-08-17T09:45:45;24.00;99.90
25332;DHT22;13284;52.748;13.452;2023-08-17T09:48:17;23.90;99.90
25332;DHT22;13284;52.748;13.452;2023-08-17T09:50:44;23.80;99.90
25332;DHT22;13284;52.748;13.452;2023-08-17T09:53:13;23.70;99.90
25332;DHT22;13284;52.748;13.452;2023-08-17T09:55:41;23.70;99.90
25332;DHT22;13284;52.748;13.452;2023-08-17T09:58:06;23.60;99.90
25332;DHT22;13284;52.748;13.452;2023-08-17T10:00:33;23.40;99.90
25332;DHT22;13284;52.748;13.452;2023-08-17T10:03:02;23.50;99.90
25332;DHT22;13284;52.748;13.452;2023-08-17T10:05:32;23.30;99.90
25332;DHT22;13284;52.748;13.452;2023-08-17T10:08:01;23.60;99.90
25332;DHT22;13284;52.748;13.452;2023-08-17T10:10:29;23.60;99.90
25332;DHT22;13284;52.748;13.452;2023-08-17T10:13:09;23.80;99.90
25332;DHT22;13284;52.748;13.452;2023-08-17T10:18:33;24.20;99.90
25332;DHT22;13284;52.748;13.452;2023-08-17T10:21:02;24.20;99.90
25332;DHT22;13284;52.748;13.452;2023-08-17T10:23:31;24.40;99.90
25332;DHT22;13284;52.748;13.452;2023-08-17T10:25:56;24.70;99.90
25332;DHT22;13284;52.748;13.452;2023-08-17T10:28:23;25.00;99.90
25332;DHT22;13284;52.748;13.452;2023-08-17T10:30:49;24.90;99.90
25332;DHT22;13284;52.748;13.452;2023-08-17T10:33:16;24.90;99.90
25332;DHT22;13284;52.748;13.452;2023-08-17T10:35:43;25.20;99.90
25332;DHT22;13284;52.748;13.452;2023-08-17T10:38:10;25.20;99.90
25332;DHT22;13284;52.748;13.452;2023-08-17T10:40:37;25.20;99.90
25332;DHT22;13284;52.748;13.452;2023-08-17T10:43:03;24.90;99.90
25332;DHT22;13284;52.748;13.452;2023-08-17T10:45:33;25.00;99.90
25332;DHT22;13284;52.748;13.452;2023-08-17T10:48:25;24.90;99.90
25332;DHT22;13284;52.748;13.452;2023-08-17T10:51:01;24.90;99.90
25332;DHT22;13284;52.748;13.452;2023-08-17T10:53:27;24.70;99.90
25332;DHT22;13284;52.748;13.452;2023-08-17T10:55:57;24.60;99.90
25332;DHT22;13284;52.748;13.452;2023-08-17T10:58:23;24.60;99.90
25332;DHT22;13284;52.748;13.452;2023-08-17T11:00:54;24.40;99.90
25332;DHT22;13284;52.748;13.452;2023-08-17T11:03:41;24.20;99.90
25332;DHT22;13284;52.748;13.452;2023-08-17T11:06:16;24.00;99.90
25332;DHT22;13284;52.748;13.452;2023-08-17T11:08:54;23.90;99.90
25332;DHT22;13284;52.748;13.452;2023-08-17T11:11:59;23.90;99.90
25332;DHT22;13284;52.748;13.452;2023-08-17T11:15:00;24.00;99.90
25332;DHT22;13284;52.748;13.452;2023-08-17T11:17:26;24.60;99.90
25332;DHT22;13284;52.748;13.452;2023-08-17T11:19:52;25.90;99.90
25332;DHT22;13284;52.748;13.452;2023-08-17T11:22:18;27.30;99.90
25332;DHT22;13284;52.748;13.452;2023-08-17T11:24:43;27.80;99.90
25332;DHT22;13284;52.748;13.452;2023-08-17T11:27:09;28.40;99.90
25332;DHT22;13284;52.748;13.452;2023-08-17T11:29:35;28.60;99.90
25332;DHT22;13284;52.748;13.452;2023-08-17T11:32:01;28.60;99.90
25332;DHT22;13284;52.748;13.452;2023-08-17T11:34:26;28.50;99.90
25332;DHT22;13284;52.748;13.452;2023-08-17T11:36:57;28.30;99.90
25332;DHT22;13284;52.748;13.452;2023-08-17T11:39:22;28.40;99.90
25332;DHT22;13284;52.748;13.452;2023-08-17T11:41:48;29.00;99.90
25332;DHT22;13284;52.748;13.452;2023-08-17T11:44:14;29.50;99.90
25332;DHT22;13284;52.748;13.452;2023-08-17T11:46:40;29.70;99.90
25332;DHT22;13284;52.748;13.452;2023-08-17T11:49:06;29.30;99.90
25332;DHT22;13284;52.748;13.452;2023-08-17T11:51:32;29.40;99.90
25332;DHT22;13284;52.748;13.452;2023-08-17T11:54:01;29.70;99.90
25332;DHT22;13284;52.748;13.452;2023-08-17T11:56:28;29.40;99.90
25332;DHT22;13284;52.748;13.452;2023-08-17T11:58:54;29.00;99.90
25332;DHT22;13284;52.748;13.452;2023-08-17T12:01:19;28.80;99.90
25332;DHT22;13284;52.748;13.452;2023-08-17T12:03:45;28.00;99.90
25332;DHT22;13284;52.748;13.452;2023-08-17T12:06:11;27.90;99.90
25332;DHT22;13284;52.748;13.452;2023-08-17T12:08:44;27.80;99.90
25332;DHT22;13284;52.748;13.452;2023-08-17T12:11:10;27.70;99.90
25332;DHT22;13284;52.748;13.452;2023-08-17T12:13:35;27.80;99.90
25332;DHT22;13284;52.748;13.452;2023-08-17T12:16:02;27.60;99.90
25332;DHT22;13284;52.748;13.452;2023-08-17T12:18:31;27.70;99.90
25332;DHT22;13284;52.748;13.452;2023-08-17T12:20:57;28.50;99.90
25332;DHT22;13284;52.748;13.452;2023-08-17T12:23:22;29.60;99.90
25332;DHT22;13284;52.748;13.452;2023-08-17T12:25:53;30.40;99.90
25332;DHT22;13284;52.748;13.452;2023-08-17T12:28:19;29.90;99.90
25332;DHT22;13284;52.748;13.452;2023-08-17T12:30:44;29.60;99.90
25332;DHT22;13284;52.748;13.452;2023-08-17T12:33:10;28.80;99.90
25332;DHT22;13284;52.748;13.452;2023-08-17T12:35:38;28.80;99.90
25332;DHT22;13284;52.748;13.452;2023-08-17T12:38:03;29.10;99.90
25332;DHT22;13284;52.748;13.452;2023-08-17T12:40:29;28.90;99.90
25332;DHT22;13284;52.748;13.452;2023-08-17T12:42:54;28.00;99.90
25332;DHT22;13284;52.748;13.452;2023-08-17T12:45:20;27.70;99.90
25332;DHT22;13284;52.748;13.452;2023-08-17T12:47:46;27.50;99.90
25332;DHT22;13284;52.748;13.452;2023-08-17T12:50:13;27.40;99.90
25332;DHT22;13284;52.748;13.452;2023-08-17T12:52:39;27.20;99.90
25332;DHT22;13284;52.748;13.452;2023-08-17T12:55:05;26.90;99.90
25332;DHT22;13284;52.748;13.452;2023-08-17T12:57:33;26.90;99.90
25332;DHT22;13284;52.748;13.452;2023-08-17T12:59:59;26.90;99.90
25332;DHT22;13284;52.748;13.452;2023-08-17T13:02:27;27.00;99.90
25332;DHT22;13284;52.748;13.452;2023-08-17T13:04:53;27.40;99.90
25332;DHT22;13284;52.748;13.452;2023-08-17T13:07:18;27.80;99.90
25332;DHT22;13284;52.748;13.452;2023-08-17T13:09:47;27.80;99.90
25332;DHT22;13284;52.748;13.452;2023-08-17T13:12:12;27.90;99.90
25332;DHT22;13284;52.748;13.452;2023-08-17T13:14:38;28.30;99.90
25332;DHT22;13284;52.748;13.452;2023-08-17T13:17:04;28.60;99.90
25332;DHT22;13284;52.748;13.452;2023-08-17T13:19:29;28.50;99.90
25332;DHT22;13284;52.748;13.452;2023-08-17T13:21:55;28.30;99.90
25332;DHT22;13284;52.748;13.452;2023-08-17T13:24:20;28.00;99.90
25332;DHT22;13284;52.748;13.452;2023-08-17T13:26:46;28.10;99.90
25332;DHT22;13284;52.748;13.452;2023-08-17T13:29:13;28.40;99.90
25332;DHT22;13284;52.748;13.452;2023-08-17T13:31:38;28.40;99.90
25332;DHT22;13284;52.748;13.452;2023-08-17T13:34:04;28.50;99.90
25332;DHT22;13284;52.748;13.452;2023-08-17T13:36:30;28.50;99.90
25332;DHT22;13284;52.748;13.452;2023-08-17T13:38:55;28.60;99.90
25332;DHT22;13284;52.748;13.452;2023-08-17T13:41:23;28.40;99.90
25332;DHT22;13284;52.748;13.452;2023-08-17T13:43:50;28.10;99.90
25332;DHT22;13284;52.748;13.452;2023-08-17T13:46:26;28.20;99.90
25332;DHT22;13284;52.748;13.452;2023-08-17T13:48:51;28.00;99.90
25332;DHT22;13284;52.748;13.452;2023-08-17T13:51:19;28.30;99.90
25332;DHT22;13284;52.748;13.452;2023-08-17T13:53:44;28.70;99.90
25332;DHT22;13284;52.748;13.452;2023-08-17T13:56:10;28.60;99.90
25332;DHT22;13284;52.748;13.452;2023-08-17T13:58:36;28.40;99.90
25332;DHT22;13284;52.748;13.452;2023-08-17T14:01:02;28.50;99.90
25332;DHT22;13284;52.748;13.452;2023-08-17T14:03:27;28.50;99.90
25332;DHT22;13284;52.748;13.452;2023-08-17T14:05:53;28.60;99.90
25332;DHT22;13284;52.748;13.452;2023-08-17T14:08:19;28.70;99.90
25332;DHT22;13284;52.748;13.452;2023-08-17T14:10:45;28.40;99.90
25332;DHT22;13284;52.748;13.452;2023-08-17T14:13:10;28.20;99.90
25332;DHT22;13284;52.748;13.452;2023-08-17T14:15:36;28.20;99.90
25332;DHT22;13284;52.748;13.452;2023-08-17T14:18:01;28.30;99.90
25332;DHT22;13284;52.748;13.452;2023-08-17T14:20:32;28.10;99.90
25332;DHT22;13284;52.748;13.452;2023-08-17T14:22:57;28.00;99.90
25332;DHT22;13284;52.748;13.452;2023-08-17T14:25:23;27.90;99.90
25332;DHT22;13284;52.748;13.452;2023-08-17T14:27:48;27.70;99.90
25332;DHT22;13284;52.748;13.452;2023-08-17T14:30:14;27.70;99.90
25332;DHT22;13284;52.748;13.452;2023-08-17T14:32:39;27.60;99.90
25332;DHT22;13284;52.748;13.452;2023-08-17T14:35:05;27.60;99.90
25332;DHT22;13284;52.748;13.452;2023-08-17T14:37:30;27.80;99.90
25332;DHT22;13284;52.748;13.452;2023-08-17T14:39:56;28.00;99.90
25332;DHT22;13284;52.748;13.452;2023-08-17T14:42:22;28.30;99.90
25332;DHT22;13284;52.748;13.452;2023-08-17T14:44:48;28.30;99.90
25332;DHT22;13284;52.748;13.452;2023-08-17T14:47:14;28.20;99.90
25332;DHT22;13284;52.748;13.452;2023-08-17T14:49:39;28.30;99.90
25332;DHT22;13284;52.748;13.452;2023-08-17T14:52:10;28.40;99.90
25332;DHT22;13284;52.748;13.452;2023-08-17T14:54:38;28.10;99.90
25332;DHT22;13284;52.748;13.452;2023-08-17T14:57:04;28.10;99.90
25332;DHT22;13284;52.748;13.452;2023-08-17T14:59:29;28.10;99.90
25332;DHT22;13284;52.748;13.452;2023-08-17T15:01:55;28.00;99.90
25332;DHT22;13284;52.748;13.452;2023-08-17T15:04:22;28.00;99.90
25332;DHT22;13284;52.748;13.452;2023-08-17T15:06:50;28.20;99.90
25332;DHT22;13284;52.748;13.452;2023-08-17T15:09:15;28.30;99.90
25332;DHT22;13284;52.748;13.452;2023-08-17T15:11:41;28.10;99.90
25332;DHT22;13284;52.748;13.452;2023-08-17T15:14:06;28.20;99.90
25332;DHT22;13284;52.748;13.452;2023-08-17T15:16:32;28.20;99.90
25332;DHT22;13284;52.748;13.452;2023-08-17T15:18:57;28.30;99.90
25332;DHT22;13284;52.748;13.452;2023-08-17T15:21:23;28.30;99.90